Time;durP1;ratioP1;P1;durP2;ratioP2;P2;SDS_P1;SDS_P2;PMS_P1;PMS_P2;Temp;Humidity;BMP_temperature;BMP_pressure;BME280_temperature;BME280_humidity;BME280_pressure;Samples;Min_cycle;Max_cycle;Signal;HPM_P1;HPM_P2
2023/09/24 00:00:43;;;;;;;4.38;1.05;;;;;;;;;;5085515;28;20052;-65
2023/09/24 00:03:12;;;;;;;2.78;1.10;;;;;;;;;;5066195;28;20052;-65
2023/09/24 00:05:42;;;;;;;5.20;1.20;;;;;;;;;;5083787;28;20059;-65
2023/09/24 00:08:09;;;;;;;4.90;1.00;;;;;;;;;;5088106;28;20142;-64
2023/09/24 00:10:37;;;;;;;7.30;2.00;;;;;;;;;;5088652;28;20548;-64
2023/09/24 00:13:05;;;;;;;3.67;1.15;;;;;;;;;;5080339;28;20060;-64
2023/09/24 00:15:34;;;;;;;5.70;1.00;;;;;;;;;;5067430;28;20052;-65
2023/09/24 00:18:03;;;;;;;4.13;1.10;;;;;;;;;;5081136;28;20484;-65
2023/09/24 00:20:30;;;;;;;3.10;1.10;;;;;;;;;;5087201;28;20055;-65
2023/09/24 00:22:58;;;;;;;2.78;1.13;;;;;;;;;;5084139;28;20484;-65
2023/09/24 00:25:26;;;;;;;2.65;0.98;;;;;;;;;;5090161;28;20123;-65
2023/09/24 00:27:54;;;;;;;4.47;0.80;;;;;;;;;;5088441;28;20054;-65
2023/09/24 00:30:22;;;;;;;1.50;0.60;;;;;;;;;;5085188;28;20044;-65
2023/09/24 00:32:49;;;;;;;3.22;0.90;;;;;;;;;;5090614;28;20131;-65
2023/09/24 00:35:19;;;;;;;6.35;1.00;;;;;;;;;;5080777;28;20105;-65
2023/09/24 00:37:46;;;;;;;4.82;0.90;;;;;;;;;;5082179;28;20652;-65
2023/09/24 00:40:14;;;;;;;3.88;1.20;;;;;;;;;;5088841;28;20044;-65
2023/09/24 00:42:41;;;;;;;2.63;0.77;;;;;;;;;;5088864;28;20048;-65
2023/09/24 00:45:11;;;;;;;5.50;1.17;;;;;;;;;;5087388;28;20499;-65
2023/09/24 00:47:39;;;;;;;3.55;0.70;;;;;;;;;;5083029;28;20044;-65
2023/09/24 00:50:09;;;;;;;7.50;0.80;;;;;;;;;;5083912;28;20146;-65
2023/09/24 00:52:38;;;;;;;3.72;0.63;;;;;;;;;;5092760;28;20160;-65
2023/09/24 00:55:08;;;;;;;3.63;0.82;;;;;;;;;;5095275;28;20044;-65
2023/09/24 00:57:36;;;;;;;3.42;0.50;;;;;;;;;;5088347;28;20040;-65
2023/09/24 01:00:09;;;;;;;2.83;0.55;;;;;;;;;;5094500;28;20114;-65
2023/09/24 01:02:37;;;;;;;2.60;0.60;;;;;;;;;;5090369;28;20048;-65
2023/09/24 01:05:09;;;;;;;4.47;0.65;;;;;;;;;;5096659;28;20483;-65
2023/09/24 01:07:38;;;;;;;4.45;0.93;;;;;;;;;;5094899;28;20059;-65
2023/09/24 01:10:10;;;;;;;2.70;0.77;;;;;;;;;;5094663;28;20051;-65
2023/09/24 01:12:39;;;;;;;4.80;0.82;;;;;;;;;;5086820;28;20113;-65
2023/09/24 01:15:08;;;;;;;4.25;0.70;;;;;;;;;;5085666;28;20048;-65
2023/09/24 01:17:36;;;;;;;7.78;0.60;;;;;;;;;;5089322;28;20060;-65
2023/09/24 01:20:05;;;;;;;4.18;0.60;;;;;;;;;;5089791;28;20428;-65
2023/09/24 01:22:37;;;;;;;2.47;0.60;;;;;;;;;;5091792;28;20052;-65
2023/09/24 01:25:05;;;;;;;6.97;0.82;;;;;;;;;;5095056;28;20048;-65
2023/09/24 01:27:36;;;;;;;3.47;0.60;;;;;;;;;;5089740;28;20056;-65
2023/09/24 01:30:05;;;;;;;2.88;0.65;;;;;;;;;;5087956;28;20048;-65
2023/09/24 01:32:32;;;;;;;3.10;0.80;;;;;;;;;;5086876;28;20523;-65
2023/09/24 01:35:03;;;;;;;2.85;0.60;;;;;;;;;;5092009;28;20440;-65
2023/09/24 01:37:33;;;;;;;3.78;0.63;;;;;;;;;;5090428;28;20131;-65
2023/09/24 01:40:06;;;;;;;2.30;0.50;;;;;;;;;;5088294;28;20036;-65
2023/09/24 01:42:35;;;;;;;7.80;0.73;;;;;;;;;;5087942;28;20052;-65
2023/09/24 01:45:03;;;;;;;2.45;0.57;;;;;;;;;;5090488;28;20608;-65
2023/09/24 01:47:31;;;;;;;4.65;0.70;;;;;;;;;;5078704;28;20052;-65
2023/09/24 01:49:58;;;;;;;3.70;0.80;;;;;;;;;;5093713;28;20048;-65
2023/09/24 01:52:26;;;;;;;4.47;0.80;;;;;;;;;;5094397;28;20507;-65
2023/09/24 01:54:55;;;;;;;2.00;0.52;;;;;;;;;;5090287;28;20048;-65
2023/09/24 01:57:24;;;;;;;7.13;0.80;;;;;;;;;;5095074;28;20063;-65
2023/09/24 01:59:51;;;;;;;9.73;0.77;;;;;;;;;;5093292;28;20071;-65
2023/09/24 02:02:18;;;;;;;3.38;0.77;;;;;;;;;;5086931;28;20048;-65
2023/09/24 02:04:46;;;;;;;2.95;0.55;;;;;;;;;;5076290;28;20083;-65
2023/09/24 02:07:15;;;;;;;4.45;0.88;;;;;;;;;;5087055;28;20063;-65
2023/09/24 02:09:42;;;;;;;3.08;0.80;;;;;;;;;;5070258;28;20085;-66
2023/09/24 02:12:10;;;;;;;3.35;0.90;;;;;;;;;;5092047;28;20055;-65
2023/09/24 02:14:39;;;;;;;3.60;0.70;;;;;;;;;;5085567;28;20045;-65
2023/09/24 02:17:07;;;;;;;4.10;0.75;;;;;;;;;;5089370;28;20093;-65
2023/09/24 02:19:34;;;;;;;6.80;1.27;;;;;;;;;;5081654;28;20514;-65
2023/09/24 02:22:03;;;;;;;7.40;1.20;;;;;;;;;;5082901;28;20052;-65
2023/09/24 02:24:30;;;;;;;5.93;1.27;;;;;;;;;;5084236;28;20048;-65
2023/09/24 02:26:57;;;;;;;2.92;1.10;;;;;;;;;;5087040;28;20542;-65
2023/09/24 02:29:24;;;;;;;4.45;1.27;;;;;;;;;;5082964;28;20044;-65
2023/09/24 02:31:53;;;;;;;5.78;1.63;;;;;;;;;;5091177;28;20067;-65
2023/09/24 02:34:20;;;;;;;2.75;1.42;;;;;;;;;;5090974;28;20494;-65
2023/09/24 02:36:48;;;;;;;2.60;1.50;;;;;;;;;;5071493;28;20058;-65
2023/09/24 02:39:15;;;;;;;4.13;1.60;;;;;;;;;;5088111;28;20047;-65
2023/09/24 02:41:43;;;;;;;7.20;1.70;;;;;;;;;;5086800;28;20048;-65
2023/09/24 02:44:10;;;;;;;4.57;1.98;;;;;;;;;;5086192;28;20506;-65
2023/09/24 02:46:37;;;;;;;9.20;2.00;;;;;;;;;;5092894;28;20051;-65
2023/09/24 02:49:06;;;;;;;6.82;1.65;;;;;;;;;;5082670;28;20055;-65
2023/09/24 02:51:34;;;;;;;5.28;1.73;;;;;;;;;;5084753;28;20051;-65
2023/09/24 02:54:03;;;;;;;6.18;1.58;;;;;;;;;;5083956;28;20525;-65
2023/09/24 02:56:30;;;;;;;4.03;1.88;;;;;;;;;;5081003;28;20052;-65
2023/09/24 02:58:58;;;;;;;6.13;1.77;;;;;;;;;;5089607;28;20044;-65
2023/09/24 03:01:26;;;;;;;3.67;2.05;;;;;;;;;;5087799;28;20496;-65
2023/09/24 03:03:54;;;;;;;4.40;1.92;;;;;;;;;;5079111;28;20052;-65
2023/09/24 03:06:23;;;;;;;6.65;2.00;;;;;;;;;;5089962;28;20044;-65
2023/09/24 03:08:52;;;;;;;6.10;1.70;;;;;;;;;;5090721;28;20134;-65
2023/09/24 03:11:20;;;;;;;4.95;1.80;;;;;;;;;;5091154;28;20044;-65
2023/09/24 03:13:47;;;;;;;8.18;2.15;;;;;;;;;;5087530;28;20048;-65
2023/09/24 03:16:15;;;;;;;5.18;1.88;;;;;;;;;;5090337;28;20070;-65
2023/09/24 03:18:42;;;;;;;8.30;2.25;;;;;;;;;;5085715;28;20060;-65
2023/09/24 03:21:13;;;;;;;4.95;2.35;;;;;;;;;;5087634;28;20044;-65
2023/09/24 03:23:41;;;;;;;6.25;2.00;;;;;;;;;;5085151;28;20384;-65
2023/09/24 03:26:14;;;;;;;4.07;1.95;;;;;;;;;;5084147;28;20113;-65
2023/09/24 03:28:41;;;;;;;4.82;2.25;;;;;;;;;;5087982;28;20054;-65
2023/09/24 03:31:13;;;;;;;3.90;2.10;;;;;;;;;;5074334;28;20052;-65
2023/09/24 03:33:40;;;;;;;8.52;2.25;;;;;;;;;;5083920;28;20048;-65
2023/09/24 03:36:08;;;;;;;6.18;2.33;;;;;;;;;;5090285;28;20051;-65
2023/09/24 03:38:36;;;;;;;6.93;2.25;;;;;;;;;;5085796;28;20605;-65
2023/09/24 03:41:05;;;;;;;5.18;2.13;;;;;;;;;;5090060;28;20122;-65
2023/09/24 03:43:32;;;;;;;4.70;2.30;;;;;;;;;;5085507;28;20048;-65
2023/09/24 03:45:59;;;;;;;6.93;2.50;;;;;;;;;;5089462;28;20044;-65
2023/09/24 03:48:27;;;;;;;6.15;2.70;;;;;;;;;;5088187;28;20044;-65
2023/09/24 03:50:54;;;;;;;7.05;2.38;;;;;;;;;;5076422;28;20044;-65
2023/09/24 03:53:22;;;;;;;11.73;2.50;;;;;;;;;;5090485;28;20075;-65
2023/09/24 03:55:49;;;;;;;13.73;2.75;;;;;;;;;;5085844;28;20059;-65
2023/09/24 03:58:17;;;;;;;7.28;2.40;;;;;;;;;;5084759;28;20502;-65
2023/09/24 04:00:45;;;;;;;7.00;2.70;;;;;;;;;;5087586;28;20087;-65
2023/09/24 04:03:13;;;;;;;7.20;2.63;;;;;;;;;;5083207;28;20052;-65
2023/09/24 04:05:41;;;;;;;5.93;2.55;;;;;;;;;;5095268;28;20054;-65
2023/09/24 04:08:08;;;;;;;7.45;2.58;;;;;;;;;;5084111;28;20403;-65
2023/09/24 04:10:35;;;;;;;7.07;2.50;;;;;;;;;;5083170;28;20044;-65
2023/09/24 04:13:03;;;;;;;8.20;2.45;;;;;;;;;;5084064;28;20045;-65
2023/09/24 04:15:32;;;;;;;5.50;2.30;;;;;;;;;;5086841;28;20395;-65
2023/09/24 04:18:00;;;;;;;6.80;3.15;;;;;;;;;;5086695;28;20059;-65
2023/09/24 04:20:29;;;;;;;7.25;2.67;;;;;;;;;;5086745;28;20150;-65
2023/09/24 04:22:56;;;;;;;8.00;2.67;;;;;;;;;;5098785;28;20051;-65
2023/09/24 04:25:26;;;;;;;4.75;2.28;;;;;;;;;;5084393;28;20151;-65
2023/09/24 04:27:53;;;;;;;6.68;2.80;;;;;;;;;;5084539;28;20483;-65
2023/09/24 04:30:22;;;;;;;7.18;2.53;;;;;;;;;;5086454;28;20047;-65
2023/09/24 04:32:52;;;;;;;11.00;2.88;;;;;;;;;;5082089;28;20049;-65
2023/09/24 04:35:19;;;;;;;8.65;2.60;;;;;;;;;;5082232;28;20090;-65
2023/09/24 04:37:47;;;;;;;7.10;2.47;;;;;;;;;;5097435;28;20095;-65
2023/09/24 04:40:15;;;;;;;7.43;2.55;;;;;;;;;;5088178;28;20054;-65
2023/09/24 04:42:42;;;;;;;6.55;2.50;;;;;;;;;;5092976;28;20097;-65
2023/09/24 04:45:10;;;;;;;9.00;2.65;;;;;;;;;;5085529;28;20052;-65
2023/09/24 04:47:37;;;;;;;9.70;2.67;;;;;;;;;;5085935;28;20084;-65
2023/09/24 04:50:07;;;;;;;9.93;2.67;;;;;;;;;;5088094;28;20498;-65
2023/09/24 04:52:34;;;;;;;9.60;3.47;;;;;;;;;;5076042;28;20052;-65
2023/09/24 04:55:01;;;;;;;4.93;2.60;;;;;;;;;;5079879;28;20044;-65
2023/09/24 04:57:29;;;;;;;7.70;2.95;;;;;;;;;;5083147;28;20040;-65
2023/09/24 04:59:56;;;;;;;4.75;2.50;;;;;;;;;;5089044;28;20059;-65
2023/09/24 05:02:23;;;;;;;10.27;2.95;;;;;;;;;;5096791;28;20098;-65
2023/09/24 05:04:50;;;;;;;7.72;3.08;;;;;;;;;;5079393;28;20079;-65
2023/09/24 05:07:19;;;;;;;8.07;3.08;;;;;;;;;;5077678;28;20060;-65
2023/09/24 05:09:47;;;;;;;9.45;2.83;;;;;;;;;;5086464;28;20044;-65
2023/09/24 05:12:14;;;;;;;6.85;2.80;;;;;;;;;;5083467;28;20055;-65
2023/09/24 05:14:41;;;;;;;6.57;2.65;;;;;;;;;;5081453;28;20702;-65
2023/09/24 05:17:09;;;;;;;7.25;3.03;;;;;;;;;;5086094;28;20052;-65
2023/09/24 05:19:36;;;;;;;6.47;2.90;;;;;;;;;;5076466;28;20063;-65
2023/09/24 05:22:03;;;;;;;8.20;3.70;;;;;;;;;;5079868;28;20048;-65
2023/09/24 05:24:33;;;;;;;9.10;3.22;;;;;;;;;;5080224;28;20052;-65
2023/09/24 05:27:00;;;;;;;6.55;3.22;;;;;;;;;;5085458;28;20047;-65
2023/09/24 05:29:27;;;;;;;6.32;2.75;;;;;;;;;;5069698;28;20044;-65
2023/09/24 05:31:55;;;;;;;8.10;3.08;;;;;;;;;;5065421;28;20584;-65
2023/09/24 05:34:22;;;;;;;9.57;3.10;;;;;;;;;;5084473;28;20044;-65
2023/09/24 05:36:51;;;;;;;6.28;2.80;;;;;;;;;;5083428;28;20056;-65
2023/09/24 05:39:18;;;;;;;6.40;3.08;;;;;;;;;;5088306;28;20510;-66
2023/09/24 05:41:47;;;;;;;6.07;3.05;;;;;;;;;;5084539;28;20051;-65
2023/09/24 05:44:16;;;;;;;7.55;3.47;;;;;;;;;;5089040;28;20056;-66
2023/09/24 05:46:43;;;;;;;9.52;2.92;;;;;;;;;;5089789;28;20086;-65
2023/09/24 05:49:10;;;;;;;6.40;3.63;;;;;;;;;;5088583;28;20040;-65
2023/09/24 05:51:37;;;;;;;7.60;3.58;;;;;;;;;;5093719;28;20074;-66
2023/09/24 05:54:05;;;;;;;7.20;2.90;;;;;;;;;;5092383;28;20056;-65
2023/09/24 05:56:32;;;;;;;10.07;3.35;;;;;;;;;;5074055;28;20048;-65
2023/09/24 05:59:01;;;;;;;9.63;3.97;;;;;;;;;;5067470;28;20048;-65
2023/09/24 06:01:28;;;;;;;7.43;3.20;;;;;;;;;;5092529;28;20048;-65
2023/09/24 06:03:55;;;;;;;7.75;3.42;;;;;;;;;;5081729;28;20495;-65
2023/09/24 06:06:22;;;;;;;8.68;3.22;;;;;;;;;;5093590;28;20071;-66
2023/09/24 06:08:50;;;;;;;8.27;3.00;;;;;;;;;;5090723;28;20048;-65
2023/09/24 06:11:17;;;;;;;6.15;3.45;;;;;;;;;;5085694;28;20101;-65
2023/09/24 06:13:44;;;;;;;8.18;3.47;;;;;;;;;;5083160;28;20048;-65
2023/09/24 06:16:13;;;;;;;9.98;3.58;;;;;;;;;;5073622;28;20051;-65
2023/09/24 06:18:40;;;;;;;10.65;3.40;;;;;;;;;;5079713;28;20047;-65
2023/09/24 06:21:09;;;;;;;11.38;3.58;;;;;;;;;;5088862;28;20047;-65
2023/09/24 06:23:37;;;;;;;7.57;3.50;;;;;;;;;;5091814;28;20130;-65
2023/09/24 06:26:04;;;;;;;5.88;3.33;;;;;;;;;;5090611;28;20040;-65
2023/09/24 06:28:31;;;;;;;10.93;3.42;;;;;;;;;;5086692;28;20047;-65
2023/09/24 06:31:01;;;;;;;7.78;3.17;;;;;;;;;;5090151;28;20536;-65
2023/09/24 06:33:30;;;;;;;8.07;3.28;;;;;;;;;;5086645;28;20040;-65
2023/09/24 06:35:57;;;;;;;8.00;2.78;;;;;;;;;;5084915;28;20052;-65
2023/09/24 06:38:24;;;;;;;8.32;3.85;;;;;;;;;;5090159;28;20066;-65
2023/09/24 06:40:58;;;;;;;8.73;3.38;;;;;;;;;;5091601;28;20048;-65
2023/09/24 06:43:26;;;;;;;9.15;3.13;;;;;;;;;;5089717;28;20404;-65
2023/09/24 06:45:54;;;;;;;10.43;3.30;;;;;;;;;;5083112;28;20463;-65
2023/09/24 06:48:21;;;;;;;7.03;3.28;;;;;;;;;;5090021;28;20054;-65
2023/09/24 06:50:50;;;;;;;10.23;2.97;;;;;;;;;;5088481;28;20055;-65
2023/09/24 06:53:17;;;;;;;7.03;3.35;;;;;;;;;;5091985;28;20101;-65
2023/09/24 06:55:44;;;;;;;8.32;2.95;;;;;;;;;;5085678;28;20048;-65
2023/09/24 06:58:11;;;;;;;8.60;3.35;;;;;;;;;;5091412;28;20048;-65
2023/09/24 07:00:39;;;;;;;12.43;3.55;;;;;;;;;;5089212;28;20048;-65
2023/09/24 07:03:06;;;;;;;7.50;3.15;;;;;;;;;;5083788;28;20064;-65
2023/09/24 07:05:34;;;;;;;10.57;3.30;;;;;;;;;;5090277;28;20048;-65
2023/09/24 07:08:03;;;;;;;6.28;3.10;;;;;;;;;;5087127;28;20437;-65
2023/09/24 07:10:31;;;;;;;7.20;3.70;;;;;;;;;;5089901;28;20037;-65
2023/09/24 07:12:58;;;;;;;6.90;3.40;;;;;;;;;;5085238;28;20053;-65
2023/09/24 07:15:25;;;;;;;9.95;3.15;;;;;;;;;;5077666;28;20044;-65
2023/09/24 07:17:52;;;;;;;7.57;3.13;;;;;;;;;;5082136;28;20060;-65
2023/09/24 07:20:20;;;;;;;6.75;3.28;;;;;;;;;;5089852;28;20063;-65
2023/09/24 07:22:47;;;;;;;9.98;3.30;;;;;;;;;;5080650;28;20055;-65
2023/09/24 07:25:16;;;;;;;7.97;3.60;;;;;;;;;;5085234;28;20064;-65
2023/09/24 07:27:43;;;;;;;8.48;3.42;;;;;;;;;;5085948;28;20518;-65
2023/09/24 07:30:11;;;;;;;6.65;2.88;;;;;;;;;;5071563;28;20048;-66
2023/09/24 07:32:38;;;;;;;9.15;3.30;;;;;;;;;;5090080;28;20040;-65
2023/09/24 07:35:08;;;;;;;9.02;3.53;;;;;;;;;;5085589;28;20041;-65
2023/09/24 07:37:35;;;;;;;8.73;3.35;;;;;;;;;;5088044;28;20075;-65
2023/09/24 07:40:02;;;;;;;7.65;3.20;;;;;;;;;;5089458;28;20048;-65
2023/09/24 07:42:31;;;;;;;7.38;3.00;;;;;;;;;;5083224;28;20071;-65
2023/09/24 07:44:59;;;;;;;8.02;3.67;;;;;;;;;;5086887;28;20047;-65
2023/09/24 07:47:26;;;;;;;6.90;3.05;;;;;;;;;;5083205;28;20048;-65
2023/09/24 07:49:53;;;;;;;6.43;3.13;;;;;;;;;;5088990;28;20048;-65
2023/09/24 07:52:20;;;;;;;5.68;2.83;;;;;;;;;;5081644;28;20059;-65
2023/09/24 07:54:48;;;;;;;12.90;3.08;;;;;;;;;;5077573;28;20045;-65
2023/09/24 07:57:16;;;;;;;9.98;2.97;;;;;;;;;;5084935;28;20056;-65
2023/09/24 07:59:44;;;;;;;9.10;2.65;;;;;;;;;;5082152;28;20415;-65
2023/09/24 08:02:11;;;;;;;6.88;3.60;;;;;;;;;;5082072;28;20037;-65
2023/09/24 08:04:39;;;;;;;8.23;2.78;;;;;;;;;;5078973;28;20518;-66
2023/09/24 08:07:06;;;;;;;8.07;2.97;;;;;;;;;;5084666;28;20058;-65
2023/09/24 08:09:36;;;;;;;9.10;2.60;;;;;;;;;;5090498;28;20051;-65
2023/09/24 08:12:03;;;;;;;7.75;2.63;;;;;;;;;;5086289;28;20692;-65
2023/09/24 08:14:30;;;;;;;6.20;2.42;;;;;;;;;;5085387;28;20045;-65
2023/09/24 08:16:59;;;;;;;6.85;2.63;;;;;;;;;;5087634;28;20043;-65
2023/09/24 08:19:30;;;;;;;5.22;2.20;;;;;;;;;;5088513;28;20044;-65
2023/09/24 08:21:57;;;;;;;4.85;2.10;;;;;;;;;;5082306;28;20102;-65
2023/09/24 08:24:25;;;;;;;4.93;2.30;;;;;;;;;;5080817;28;20056;-65
2023/09/24 08:26:52;;;;;;;5.78;2.33;;;;;;;;;;5083272;28;20048;-65
2023/09/24 08:29:19;;;;;;;7.65;2.50;;;;;;;;;;5082437;28;20067;-65
2023/09/24 08:31:46;;;;;;;5.97;2.17;;;;;;;;;;5088772;28;20052;-65
2023/09/24 08:34:15;;;;;;;6.15;1.83;;;;;;;;;;5089807;28;20079;-65
2023/09/24 08:36:43;;;;;;;7.07;1.70;;;;;;;;;;5085722;28;20087;-65
2023/09/24 08:39:10;;;;;;;3.97;1.60;;;;;;;;;;5085388;28;20044;-65
2023/09/24 08:41:43;;;;;;;5.05;1.50;;;;;;;;;;5077200;28;20044;-65
2023/09/24 08:44:14;;;;;;;3.58;1.30;;;;;;;;;;5063531;28;20056;-65
2023/09/24 08:46:41;;;;;;;5.00;1.50;;;;;;;;;;5082008;28;20044;-65
2023/09/24 08:49:09;;;;;;;5.40;1.48;;;;;;;;;;5083340;28;20052;-65
2023/09/24 08:51:38;;;;;;;4.50;1.30;;;;;;;;;;5078656;28;20063;-65
2023/09/24 08:54:05;;;;;;;6.53;1.35;;;;;;;;;;5081461;28;20044;-65
2023/09/24 08:56:32;;;;;;;5.00;0.98;;;;;;;;;;5081886;28;20349;-65
2023/09/24 08:59:00;;;;;;;4.65;1.40;;;;;;;;;;5083509;28;20046;-65
2023/09/24 09:01:27;;;;;;;3.00;1.05;;;;;;;;;;5090362;28;20052;-65
2023/09/24 09:03:53;;;;;;;3.20;1.00;;;;;;;;;;5081040;28;20052;-65
2023/09/24 09:06:31;;;;;;;4.93;1.02;;;;;;;;;;5087388;28;20105;-65
2023/09/24 09:08:59;;;;;;;4.53;1.10;;;;;;;;;;5084442;28;20052;-65
2023/09/24 09:11:38;;;;;;;4.65;1.20;;;;;;;;;;5067549;28;20042;-65
2023/09/24 09:14:06;;;;;;;3.83;1.35;;;;;;;;;;5094033;28;20483;-66
2023/09/24 09:16:34;;;;;;;2.90;1.10;;;;;;;;;;5092708;28;20394;-65
2023/09/24 09:19:02;;;;;;;2.30;1.05;;;;;;;;;;5080235;28;20541;-66
2023/09/24 09:21:29;;;;;;;4.85;1.23;;;;;;;;;;5090190;28;20041;-65
2023/09/24 09:23:56;;;;;;;5.32;1.85;;;;;;;;;;5088733;28;20059;-65
2023/09/24 09:26:29;;;;;;;3.97;1.38;;;;;;;;;;5090346;28;20055;-65
2023/09/24 09:28:56;;;;;;;5.88;1.27;;;;;;;;;;5086730;28;20156;-65
2023/09/24 09:31:23;;;;;;;4.45;1.05;;;;;;;;;;5092016;28;20043;-65
2023/09/24 09:33:50;;;;;;;6.20;1.40;;;;;;;;;;5088244;28;20044;-64
2023/09/24 09:36:22;;;;;;;4.03;1.00;;;;;;;;;;5088639;28;20470;-65
2023/09/24 09:38:50;;;;;;;3.22;1.10;;;;;;;;;;5092556;28;20047;-65
2023/09/24 09:41:18;;;;;;;4.38;0.90;;;;;;;;;;5092100;28;20511;-66
2023/09/24 09:43:49;;;;;;;4.72;1.02;;;;;;;;;;5092075;28;20755;-65
2023/09/24 09:46:18;;;;;;;4.05;1.23;;;;;;;;;;5089342;28;20048;-65
2023/09/24 09:48:50;;;;;;;5.28;1.30;;;;;;;;;;5091088;28;20059;-65
2023/09/24 09:51:20;;;;;;;4.00;1.13;;;;;;;;;;5090217;28;20715;-65
2023/09/24 09:53:48;;;;;;;3.25;1.13;;;;;;;;;;5083290;28;20055;-65
2023/09/24 09:56:15;;;;;;;3.95;1.30;;;;;;;;;;5085084;28;20051;-65
2023/09/24 09:58:46;;;;;;;4.60;1.60;;;;;;;;;;5091691;28;20059;-66
2023/09/24 10:01:18;;;;;;;5.15;1.20;;;;;;;;;;5091675;28;20127;-66
2023/09/24 10:03:46;;;;;;;4.97;1.08;;;;;;;;;;5091951;28;20048;-65
2023/09/24 10:06:14;;;;;;;6.18;1.58;;;;;;;;;;5092113;28;20053;-65
2023/09/24 10:08:42;;;;;;;5.05;1.08;;;;;;;;;;5088932;28;20043;-65
2023/09/24 10:11:10;;;;;;;3.75;1.00;;;;;;;;;;5084054;28;20044;-65
2023/09/24 10:13:43;;;;;;;2.70;0.90;;;;;;;;;;5093794;28;20048;-65
2023/09/24 10:16:29;;;;;;;4.25;1.08;;;;;;;;;;5092901;28;20122;-65
2023/09/24 10:18:58;;;;;;;3.60;0.93;;;;;;;;;;5086370;28;20110;-65
2023/09/24 10:21:30;;;;;;;5.30;1.35;;;;;;;;;;5093011;28;21230;-65
2023/09/24 10:23:57;;;;;;;6.75;1.20;;;;;;;;;;5086467;28;20048;-64
2023/09/24 10:26:43;;;;;;;4.47;1.27;;;;;;;;;;5091521;28;20455;-65
2023/09/24 10:29:10;;;;;;;3.28;0.98;;;;;;;;;;5085347;28;20050;-65
2023/09/24 10:32:01;;;;;;;2.60;0.93;;;;;;;;;;5095213;28;20040;-65
2023/09/24 10:34:49;;;;;;;8.98;1.33;;;;;;;;;;5092184;28;20521;-65
2023/09/24 10:37:17;;;;;;;3.42;1.00;;;;;;;;;;5086940;28;20047;-65
2023/09/24 10:39:59;;;;;;;5.10;1.10;;;;;;;;;;5090109;28;20423;-65
2023/09/24 10:42:27;;;;;;;4.65;1.08;;;;;;;;;;5087151;28;20040;-65
2023/09/24 10:45:23;;;;;;;5.45;1.10;;;;;;;;;;5089922;28;20496;-65
2023/09/24 10:47:51;;;;;;;3.67;0.98;;;;;;;;;;5091754;28;20052;-65
2023/09/24 10:50:20;;;;;;;5.43;1.20;;;;;;;;;;5082332;28;20040;-65
2023/09/24 10:52:47;;;;;;;2.63;0.77;;;;;;;;;;5086963;28;20051;-65
2023/09/24 10:55:15;;;;;;;4.22;1.00;;;;;;;;;;5062496;28;20059;-66
2023/09/24 10:57:45;;;;;;;3.28;1.00;;;;;;;;;;5092839;28;20080;-65
2023/09/24 11:00:15;;;;;;;4.82;1.05;;;;;;;;;;5087106;28;20048;-65
2023/09/24 11:02:43;;;;;;;4.28;1.00;;;;;;;;;;5084657;28;20041;-65
2023/09/24 11:05:12;;;;;;;3.42;1.23;;;;;;;;;;5084474;28;20047;-65
2023/09/24 11:07:39;;;;;;;2.95;0.95;;;;;;;;;;5091835;28;20060;-65
2023/09/24 11:10:07;;;;;;;3.67;1.17;;;;;;;;;;5085027;28;20040;-65
2023/09/24 11:12:34;;;;;;;4.00;1.10;;;;;;;;;;5085802;28;20040;-64
2023/09/24 11:15:01;;;;;;;4.22;0.93;;;;;;;;;;5086683;28;20074;-64
2023/09/24 11:17:29;;;;;;;3.78;1.00;;;;;;;;;;5086569;28;20059;-64
2023/09/24 11:19:56;;;;;;;3.70;0.93;;;;;;;;;;5076642;28;20053;-64
2023/09/24 11:22:25;;;;;;;4.35;1.00;;;;;;;;;;5083699;28;20044;-64
2023/09/24 11:25:05;;;;;;;2.10;0.82;;;;;;;;;;5081583;28;20044;-64
2023/09/24 11:27:33;;;;;;;2.92;1.02;;;;;;;;;;5064442;28;20123;-65
2023/09/24 11:30:00;;;;;;;2.72;1.00;;;;;;;;;;5076223;28;20055;-65
2023/09/24 11:32:28;;;;;;;5.35;1.02;;;;;;;;;;5083352;28;20055;-64
2023/09/24 11:35:13;;;;;;;3.03;1.20;;;;;;;;;;5085354;28;20056;-65
2023/09/24 11:37:49;;;;;;;4.43;1.00;;;;;;;;;;5086915;28;20052;-65
2023/09/24 11:40:23;;;;;;;1.65;0.90;;;;;;;;;;5089791;28;20561;-65
2023/09/24 11:42:51;;;;;;;2.75;0.93;;;;;;;;;;5073295;28;20059;-65
2023/09/24 11:45:32;;;;;;;4.03;0.88;;;;;;;;;;5071153;28;20044;-65
2023/09/24 11:47:59;;;;;;;3.42;1.23;;;;;;;;;;5084232;28;20055;-64
2023/09/24 11:50:27;;;;;;;3.90;1.10;;;;;;;;;;5081716;28;20044;-65
2023/09/24 11:52:55;;;;;;;5.55;1.10;;;;;;;;;;5076283;28;20044;-65
2023/09/24 11:55:22;;;;;;;4.03;1.05;;;;;;;;;;5082451;28;20044;-65
2023/09/24 11:57:50;;;;;;;3.67;1.30;;;;;;;;;;5069975;28;20521;-65
2023/09/24 12:00:18;;;;;;;4.22;1.20;;;;;;;;;;5088387;28;20040;-65
2023/09/24 12:02:45;;;;;;;3.58;1.25;;;;;;;;;;5083417;28;20048;-65
2023/09/24 12:05:12;;;;;;;2.88;1.10;;;;;;;;;;5083193;28;20060;-65
2023/09/24 12:07:39;;;;;;;1.92;1.00;;;;;;;;;;5084150;28;20519;-65
2023/09/24 12:10:08;;;;;;;3.72;1.23;;;;;;;;;;5075206;28;20051;-65
2023/09/24 12:12:35;;;;;;;3.50;1.00;;;;;;;;;;5061108;28;20511;-64
2023/09/24 12:15:03;;;;;;;2.85;1.08;;;;;;;;;;5081591;28;20062;-65
2023/09/24 12:17:30;;;;;;;2.63;0.95;;;;;;;;;;5084423;28;20049;-65
2023/09/24 12:19:58;;;;;;;4.55;1.10;;;;;;;;;;5084528;28;20044;-65
2023/09/24 12:22:26;;;;;;;2.60;1.23;;;;;;;;;;5082257;28;20487;-64
2023/09/24 12:24:54;;;;;;;2.22;0.90;;;;;;;;;;5075014;28;20051;-65
2023/09/24 12:27:22;;;;;;;3.15;1.20;;;;;;;;;;5075887;28;20051;-65
2023/09/24 12:29:49;;;;;;;4.78;1.20;;;;;;;;;;5079938;28;20055;-65
2023/09/24 12:32:17;;;;;;;4.55;1.10;;;;;;;;;;5091448;28;20052;-65
2023/09/24 12:34:44;;;;;;;4.22;1.30;;;;;;;;;;5098413;28;20062;-65
2023/09/24 12:37:11;;;;;;;3.85;1.05;;;;;;;;;;5092213;28;20074;-65
2023/09/24 12:39:38;;;;;;;4.00;1.10;;;;;;;;;;5082530;28;20380;-65
2023/09/24 12:42:06;;;;;;;3.67;0.90;;;;;;;;;;5089447;28;20040;-65
2023/09/24 12:44:34;;;;;;;2.80;1.00;;;;;;;;;;5089733;28;20395;-65
2023/09/24 12:47:01;;;;;;;4.50;1.08;;;;;;;;;;5082250;28;20055;-65
2023/09/24 12:49:29;;;;;;;5.35;1.00;;;;;;;;;;5065457;28;20047;-65
2023/09/24 12:51:56;;;;;;;3.50;0.80;;;;;;;;;;5078327;28;20052;-65
2023/09/24 12:54:24;;;;;;;3.25;1.10;;;;;;;;;;5078161;28;20085;-64
2023/09/24 12:56:51;;;;;;;2.75;0.88;;;;;;;;;;5087770;28;20056;-65
2023/09/24 12:59:18;;;;;;;3.97;1.10;;;;;;;;;;5085540;28;20055;-64
2023/09/24 13:01:47;;;;;;;5.03;1.00;;;;;;;;;;5086366;28;20040;-65
2023/09/24 13:04:15;;;;;;;4.70;0.90;;;;;;;;;;5082299;28;20048;-65
2023/09/24 13:06:45;;;;;;;6.15;0.85;;;;;;;;;;5085598;28;20060;-65
2023/09/24 13:09:16;;;;;;;3.50;1.10;;;;;;;;;;5084330;28;20105;-65
2023/09/24 13:11:44;;;;;;;3.30;1.00;;;;;;;;;;5084181;28;20040;-65
2023/09/24 13:14:11;;;;;;;3.25;0.80;;;;;;;;;;5086170;28;20055;-65
2023/09/24 13:16:38;;;;;;;6.85;1.88;;;;;;;;;;5080444;28;20044;-65
2023/09/24 13:19:07;;;;;;;4.72;0.90;;;;;;;;;;5085588;28;20048;-65
2023/09/24 13:21:34;;;;;;;5.20;1.10;;;;;;;;;;5085352;28;20064;-65
2023/09/24 13:24:01;;;;;;;4.88;1.00;;;;;;;;;;5078961;28;20052;-65
2023/09/24 13:26:29;;;;;;;2.58;1.25;;;;;;;;;;5067965;28;20063;-65
2023/09/24 13:28:56;;;;;;;3.53;1.02;;;;;;;;;;5081765;28;20130;-65
2023/09/24 13:31:24;;;;;;;1.70;0.90;;;;;;;;;;5088440;28;20509;-65
2023/09/24 13:33:51;;;;;;;3.45;1.00;;;;;;;;;;5087356;28;20098;-65
2023/09/24 13:36:21;;;;;;;3.30;1.00;;;;;;;;;;5084372;28;20490;-65
2023/09/24 13:38:48;;;;;;;4.55;1.30;;;;;;;;;;5084957;28;20052;-64
2023/09/24 13:41:15;;;;;;;3.85;1.13;;;;;;;;;;5081286;28;20052;-65
2023/09/24 13:43:43;;;;;;;6.07;1.50;;;;;;;;;;5084126;28;20048;-64
2023/09/24 13:46:10;;;;;;;3.05;1.35;;;;;;;;;;5095343;28;20422;-65
2023/09/24 13:48:37;;;;;;;3.88;1.10;;;;;;;;;;5087440;28;20044;-65
2023/09/24 13:51:04;;;;;;;3.03;1.13;;;;;;;;;;5088190;28;20040;-65
2023/09/24 13:53:33;;;;;;;2.85;0.85;;;;;;;;;;5086312;28;20044;-65
2023/09/24 13:56:01;;;;;;;3.20;0.82;;;;;;;;;;5089123;28;20044;-65
2023/09/24 13:58:28;;;;;;;2.28;1.00;;;;;;;;;;5089779;28;20058;-64
2023/09/24 14:00:55;;;;;;;1.63;0.80;;;;;;;;;;5089280;28;20044;-65
2023/09/24 14:03:23;;;;;;;4.07;1.10;;;;;;;;;;5086542;28;20094;-65
2023/09/24 14:05:56;;;;;;;4.65;1.40;;;;;;;;;;5089395;28;20379;-65
2023/09/24 14:13:54;;;;;;;3.40;0.98;;;;;;;;;;5088197;28;20399;-65
2023/09/24 14:16:21;;;;;;;3.08;1.23;;;;;;;;;;5094839;28;20398;-65
2023/09/24 14:18:49;;;;;;;2.85;1.30;;;;;;;;;;5085140;28;20151;-65
2023/09/24 14:21:16;;;;;;;3.85;1.33;;;;;;;;;;5081388;28;20052;-65
2023/09/24 14:23:43;;;;;;;3.75;1.20;;;;;;;;;;5084893;28;20068;-65
2023/09/24 14:26:12;;;;;;;4.43;1.17;;;;;;;;;;5090442;28;20050;-65
2023/09/24 14:28:39;;;;;;;5.18;1.38;;;;;;;;;;5095973;28;20063;-64
2023/09/24 14:31:08;;;;;;;3.45;1.20;;;;;;;;;;5086790;28;20043;-65
2023/09/24 14:33:35;;;;;;;2.28;1.00;;;;;;;;;;5090417;28;20052;-65
2023/09/24 14:36:03;;;;;;;3.90;1.20;;;;;;;;;;5077204;28;20048;-65
2023/09/24 14:38:31;;;;;;;5.70;1.10;;;;;;;;;;5075794;28;20415;-64
2023/09/24 14:40:58;;;;;;;2.42;1.00;;;;;;;;;;5098771;28;20052;-64
2023/09/24 14:43:27;;;;;;;2.45;1.00;;;;;;;;;;5091385;28;21016;-65
2023/09/24 14:45:58;;;;;;;1.67;0.93;;;;;;;;;;5087951;28;20105;-65
2023/09/24 14:48:25;;;;;;;3.15;1.10;;;;;;;;;;5086047;28;20105;-64
2023/09/24 14:50:54;;;;;;;1.60;0.73;;;;;;;;;;5079426;28;20048;-64
2023/09/24 14:53:22;;;;;;;1.35;0.82;;;;;;;;;;5086974;28;20052;-64
2023/09/24 14:55:49;;;;;;;2.30;0.90;;;;;;;;;;5067823;28;20052;-64